Startseite

 
Links
   Guestbook

http://myblog.de/langen-radar

Gratis bloggen bei
myblog.de





 
Weihnachten

Information Echo recorded 252025Z

ZBAA 271900Z 34002MPS CAVOK M08/M22 Q1037 NOSIG

Weihnachten 2006...

Im gestrigen Blog habe ich es angekündigt. Aber was soll ich schreiben?! Hmm...

Sonst sind wir ja immer im Winterurlaub in Grainau an der Zugspitze. Dieses Jahr mal nicht! Gut so! Wäre sowieso kein Schnee da gewesen =) und ohne Schnee is Weihnachten eigentlich doof. Besonders doof ist es, wenn man krank ist. Christine tut mir leid. Lag am Weihnachtsabend im Bett die Arme Aber es geht wieder aufwärts!

Materielle Geschenke, dir mir die Weihnachtszeit brachte:
Geld, Poker-Chips, Flugzeugbuch, sehr schöne Bettwäsche mit chin. Zeichen drauf =), Parfum, Duschgel, Pflegezeugs, viel Schokolade und noch viele andere kleine Sachen...

Immaterielle Geschenke, die mir die Weihnachtszeit brachte, dir mir noch viel wichtiger sind:
Ein Wohlfühlgefühl der besonderen Art. Im Moment geht alles ganz locker und entspannt. Ich bin happy! Aber liegt das wirklich nur an der Weihnachtszeit?

Information Echo out.

Demnächst: Phantasialand

27.12.06 20:36
 



Verantwortlich für die Inhalte ist der Autor. Dein kostenloses Blog bei myblog.de! Datenschutzerklärung
Werbung